Time;durP1;ratioP1;P1;durP2;ratioP2;P2;SDS_P1;SDS_P2;PMS_P1;PMS_P2;Temp;Humidity;BMP_temperature;BMP_pressure;BME280_temperature;BME280_humidity;BME280_pressure;Samples;Min_cycle;Max_cycle;Signal;HPM_P1;HPM_P2
2022/08/19 00:02:25;;;;;;;11.73;6.60;;;17.40;99.90;;;;;;5035719;28;20042;-78
2022/08/19 00:04:52;;;;;;;8.90;6.55;;;17.40;99.90;;;;;;5034593;28;20056;-78
2022/08/19 00:07:19;;;;;;;11.15;6.85;;;17.30;99.90;;;;;;5035530;28;20048;-78
2022/08/19 00:09:45;;;;;;;10.85;6.95;;;17.30;99.90;;;;;;5033815;28;20474;-79
2022/08/19 00:12:11;;;;;;;11.35;6.63;;;17.30;99.90;;;;;;5034953;28;20041;-78
2022/08/19 00:14:37;;;;;;;10.75;6.38;;;17.30;99.90;;;;;;5035182;28;20040;-78
2022/08/19 00:17:06;;;;;;;9.75;6.50;;;17.10;99.90;;;;;;5035523;28;20049;-79
2022/08/19 00:19:32;;;;;;;10.25;6.07;;;17.20;99.90;;;;;;5036034;28;20050;-79
2022/08/19 00:21:58;;;;;;;12.48;6.45;;;17.20;99.90;;;;;;5034293;28;20045;-78
2022/08/19 00:24:24;;;;;;;8.18;5.40;;;17.20;99.90;;;;;;5035673;28;20049;-79
2022/08/19 00:26:51;;;;;;;10.40;5.63;;;17.30;99.90;;;;;;5034891;28;20137;-79
2022/08/19 00:29:20;;;;;;;10.63;5.50;;;17.20;99.90;;;;;;5035534;28;20045;-78
2022/08/19 00:31:46;;;;;;;10.77;5.93;;;17.10;99.90;;;;;;5034031;28;20053;-78
2022/08/19 00:34:13;;;;;;;9.02;5.90;;;17.10;99.90;;;;;;5035236;28;20049;-79
2022/08/19 00:36:40;;;;;;;9.52;6.00;;;17.10;99.90;;;;;;5034775;28;20034;-79
2022/08/19 00:39:06;;;;;;;6.78;5.10;;;17.10;99.90;;;;;;5035563;28;20088;-78
2022/08/19 00:41:32;;;;;;;10.23;5.68;;;17.20;99.90;;;;;;5027112;28;20048;-79
2022/08/19 00:43:59;;;;;;;6.75;5.07;;;17.10;99.90;;;;;;5032436;28;20537;-78
2022/08/19 00:46:25;;;;;;;10.10;5.65;;;17.10;99.90;;;;;;5034634;28;20049;-79
2022/08/19 00:48:51;;;;;;;13.20;5.93;;;17.10;99.90;;;;;;5035159;28;20125;-78
2022/08/19 00:51:17;;;;;;;9.98;5.82;;;17.60;99.90;;;;;;5034834;28;20048;-78
2022/08/19 00:53:43;;;;;;;8.82;5.85;;;17.40;99.90;;;;;;5020264;28;20057;-78
2022/08/19 00:56:10;;;;;;;12.40;6.05;;;17.10;99.90;;;;;;5021755;28;20120;-78
2022/08/19 00:58:37;;;;;;;8.80;5.80;;;17.10;99.90;;;;;;5034432;28;20056;-78
2022/08/19 01:01:03;;;;;;;12.18;6.55;;;17.10;99.90;;;;;;5033267;28;20180;-78
2022/08/19 01:03:29;;;;;;;8.00;6.15;;;17.20;99.90;;;;;;5032791;28;20049;-79
2022/08/19 01:05:56;;;;;;;10.95;6.47;;;17.10;99.90;;;;;;5034432;28;20394;-78
2022/08/19 01:08:22;;;;;;;13.35;7.60;;;17.10;99.90;;;;;;5016708;28;20052;-79
2022/08/19 01:10:56;;;;;;;11.10;6.88;;;17.10;99.90;;;;;;5034206;28;20061;-79
2022/08/19 01:13:25;;;;;;;10.20;7.57;;;17.00;99.90;;;;;;5033842;28;20080;-78
2022/08/19 01:15:58;;;;;;;16.48;8.60;;;17.00;99.90;;;;;;5034522;28;20490;-78
2022/08/19 01:18:26;;;;;;;12.35;8.73;;;17.00;99.90;;;;;;5034827;28;20099;-79
2022/08/19 01:20:55;;;;;;;15.63;8.85;;;17.00;99.90;;;;;;5034276;28;20060;-79
2022/08/19 01:23:21;;;;;;;13.85;8.68;;;16.90;99.90;;;;;;5016455;28;20075;-78
2022/08/19 01:25:50;;;;;;;13.48;8.57;;;16.90;99.90;;;;;;5032820;28;20476;-78
2022/08/19 01:28:27;;;;;;;11.32;7.47;;;16.90;99.90;;;;;;5034198;28;20432;-79
2022/08/19 01:30:53;;;;;;;12.73;7.57;;;16.90;99.90;;;;;;5026352;28;20128;-79
2022/08/19 01:33:20;;;;;;;13.45;7.93;;;17.00;99.90;;;;;;5027751;28;20092;-79
2022/08/19 01:35:50;;;;;;;12.77;7.90;;;16.90;99.90;;;;;;5034044;28;20535;-78
2022/08/19 01:38:26;;;;;;;13.77;8.65;;;16.90;99.90;;;;;;5032580;28;20148;-78
2022/08/19 01:40:52;;;;;;;14.25;8.68;;;16.90;99.90;;;;;;5032865;28;20132;-79
2022/08/19 01:43:18;;;;;;;10.77;8.15;;;17.20;99.90;;;;;;5033623;28;20121;-79
2022/08/19 01:45:45;;;;;;;12.77;8.57;;;16.80;99.90;;;;;;5032472;28;20472;-79
2022/08/19 01:48:11;;;;;;;13.13;9.30;;;16.80;99.90;;;;;;5033955;28;20445;-78
2022/08/19 01:50:37;;;;;;;12.98;9.25;;;16.80;99.90;;;;;;5034061;28;20382;-79
2022/08/19 01:53:07;;;;;;;16.35;9.73;;;16.80;99.90;;;;;;5033553;28;20125;-79
2022/08/19 01:55:36;;;;;;;15.25;10.00;;;16.70;99.90;;;;;;5034246;28;20084;-79
2022/08/19 01:58:05;;;;;;;13.55;9.20;;;16.70;99.90;;;;;;5030627;28;20041;-78
2022/08/19 02:00:32;;;;;;;12.90;9.20;;;17.20;99.90;;;;;;5028583;28;20441;-78
2022/08/19 02:02:57;;;;;;;15.00;9.70;;;16.70;99.90;;;;;;5031799;28;20060;-79
2022/08/19 02:05:23;;;;;;;13.43;9.20;;;16.70;99.90;;;;;;5032448;28;20045;-79
2022/08/19 02:07:50;;;;;;;17.73;9.90;;;16.70;99.90;;;;;;5032958;28;20124;-78
2022/08/19 02:10:20;;;;;;;16.35;9.50;;;16.70;99.90;;;;;;5035440;28;20049;-78
2022/08/19 02:12:46;;;;;;;14.82;9.65;;;16.70;99.90;;;;;;5031644;28;20072;-78
2022/08/19 02:15:12;;;;;;;13.63;9.45;;;16.70;99.90;;;;;;5040664;28;20037;-78
2022/08/19 02:17:38;;;;;;;13.40;8.95;;;16.70;99.90;;;;;;5042281;28;20048;-77
2022/08/19 02:20:06;;;;;;;15.07;9.52;;;16.60;99.90;;;;;;5053397;28;20162;-78
2022/08/19 02:22:32;;;;;;;16.13;8.88;;;16.60;99.90;;;;;;5037131;28;20053;-78
2022/08/19 02:24:58;;;;;;;14.13;8.88;;;17.00;99.90;;;;;;5046506;28;20051;-78
2022/08/19 02:27:25;;;;;;;13.73;8.95;;;16.70;99.90;;;;;;5040552;28;20461;-77
2022/08/19 02:29:51;;;;;;;13.63;8.63;;;16.60;99.90;;;;;;5015026;28;20072;-78
2022/08/19 02:32:21;;;;;;;13.55;9.48;;;16.60;99.90;;;;;;5032140;28;20045;-78
2022/08/19 02:34:47;;;;;;;12.65;9.38;;;16.60;99.90;;;;;;5031992;28;20042;-78
2022/08/19 02:39:58;;;;;;;13.73;9.23;;;16.60;99.90;;;;;;5036568;28;20068;-77
2022/08/19 02:42:25;;;;;;;11.23;8.60;;;16.60;99.90;;;;;;5029176;28;20121;-77
2022/08/19 02:44:55;;;;;;;12.63;8.85;;;16.60;99.90;;;;;;5030719;28;20204;-78
2022/08/19 02:47:21;;;;;;;12.85;8.57;;;16.60;99.90;;;;;;5032895;28;20115;-77
2022/08/19 02:49:48;;;;;;;11.27;8.82;;;16.40;99.90;;;;;;5040640;28;20045;-77
2022/08/19 02:52:14;;;;;;;11.80;9.05;;;16.60;99.90;;;;;;5033492;28;20072;-77
2022/08/19 02:54:39;;;;;;;11.15;8.20;;;16.50;99.90;;;;;;5042066;28;20521;-77
2022/08/19 02:57:06;;;;;;;10.75;8.02;;;16.50;99.90;;;;;;5032539;28;20551;-77
2022/08/19 02:59:32;;;;;;;12.23;8.07;;;16.40;99.90;;;;;;5032187;28;20422;-80
2022/08/19 03:01:58;;;;;;;9.73;8.20;;;16.40;99.90;;;;;;5027215;28;20504;-80
2022/08/19 03:04:24;;;;;;;10.57;8.38;;;16.40;99.90;;;;;;5033474;28;20124;-80
2022/08/19 03:06:50;;;;;;;10.05;8.27;;;16.40;99.90;;;;;;5030569;28;20076;-77
2022/08/19 03:09:17;;;;;;;11.98;8.27;;;16.40;99.90;;;;;;5031560;28;20033;-77
2022/08/19 03:11:43;;;;;;;13.40;8.55;;;16.40;99.90;;;;;;5031005;28;20041;-77
2022/08/19 03:14:10;;;;;;;13.43;8.98;;;16.40;99.90;;;;;;5033480;28;20405;-77
2022/08/19 03:16:44;;;;;;;13.43;9.18;;;16.40;99.90;;;;;;5043203;28;20092;-80
2022/08/19 03:19:10;;;;;;;11.37;8.97;;;16.30;99.90;;;;;;5032992;28;20085;-80
2022/08/19 03:21:36;;;;;;;11.80;8.55;;;16.20;99.90;;;;;;5032678;28;20338;-79
2022/08/19 03:24:05;;;;;;;12.60;8.43;;;16.60;99.90;;;;;;5033777;28;20037;-80
2022/08/19 03:26:31;;;;;;;13.68;9.23;;;16.20;99.90;;;;;;5036499;28;20081;-80
2022/08/19 03:28:57;;;;;;;12.07;7.95;;;16.20;99.90;;;;;;5034590;28;20073;-78
2022/08/19 03:31:23;;;;;;;13.27;9.07;;;16.20;99.90;;;;;;5035834;28;20473;-78
2022/08/19 03:33:50;;;;;;;11.98;8.95;;;16.90;99.90;;;;;;5035825;28;20041;-78
2022/08/19 03:36:20;;;;;;;11.68;8.50;;;16.20;99.90;;;;;;5033961;28;20061;-78
2022/08/19 03:38:52;;;;;;;13.63;8.85;;;16.20;99.90;;;;;;5037177;28;20084;-79
2022/08/19 03:41:20;;;;;;;12.30;8.57;;;16.20;99.90;;;;;;5032341;28;20029;-78
2022/08/19 03:43:46;;;;;;;17.40;9.23;;;16.20;99.90;;;;;;5034899;28;20175;-79
2022/08/19 03:46:16;;;;;;;13.30;9.15;;;16.20;99.90;;;;;;5033497;28;20038;-78
2022/08/19 03:48:43;;;;;;;14.18;9.30;;;16.20;99.90;;;;;;5036352;28;20525;-78
2022/08/19 03:51:35;;;;;;;12.65;8.77;;;16.20;99.90;;;;;;5035842;28;20045;-79
2022/08/19 03:54:04;;;;;;;13.10;9.10;;;16.20;99.90;;;;;;5034481;28;20041;-78
2022/08/19 03:56:30;;;;;;;12.85;9.10;;;16.20;99.90;;;;;;5034706;28;20121;-79
2022/08/19 03:58:59;;;;;;;15.95;9.23;;;16.10;99.90;;;;;;5036341;28;20049;-79
2022/08/19 04:01:26;;;;;;;11.05;8.55;;;16.70;99.90;;;;;;5035647;28;20279;-79
2022/08/19 04:03:53;;;;;;;11.95;9.30;;;16.90;99.90;;;;;;5035192;28;20243;-79
2022/08/19 04:06:23;;;;;;;12.80;9.07;;;16.10;99.90;;;;;;5033615;28;20045;-79
2022/08/19 04:08:51;;;;;;;13.07;9.10;;;16.10;99.90;;;;;;5029353;28;20037;-78
2022/08/19 04:11:21;;;;;;;15.93;9.20;;;16.10;99.90;;;;;;5031658;28;20482;-78
2022/08/19 04:13:47;;;;;;;13.15;9.70;;;16.10;99.90;;;;;;5020669;28;20116;-79
2022/08/19 04:16:13;;;;;;;14.15;9.95;;;16.10;99.90;;;;;;5035128;28;20049;-78
2022/08/19 04:18:40;;;;;;;16.15;9.77;;;16.50;99.90;;;;;;5034742;28;20103;-78
2022/08/19 04:21:07;;;;;;;12.73;9.15;;;16.10;99.90;;;;;;5035466;28;20034;-79
2022/08/19 04:23:35;;;;;;;14.23;9.55;;;16.10;99.90;;;;;;5035829;28;20124;-78
2022/08/19 04:26:02;;;;;;;13.60;9.65;;;16.10;99.90;;;;;;5035910;28;20081;-79
2022/08/19 04:28:28;;;;;;;13.70;9.52;;;16.30;99.90;;;;;;5035309;28;20041;-79
2022/08/19 04:30:55;;;;;;;14.05;9.48;;;16.10;99.90;;;;;;5034410;28;20037;-79
2022/08/19 04:33:24;;;;;;;13.70;9.15;;;16.10;99.90;;;;;;5034349;28;20060;-78
2022/08/19 04:35:51;;;;;;;12.70;9.20;;;16.50;99.90;;;;;;5033044;28;20052;-79
2022/08/19 04:38:20;;;;;;;13.50;8.77;;;16.10;99.90;;;;;;5035247;28;20512;-78
2022/08/19 04:43:36;;;;;;;13.95;9.57;;;16.10;99.90;;;;;;5031920;28;20101;-79
2022/08/19 04:46:12;;;;;;;16.33;9.57;;;16.10;99.90;;;;;;5033176;28;20057;-79
2022/08/19 04:48:39;;;;;;;12.63;9.32;;;16.20;99.90;;;;;;5032681;28;20045;-79
2022/08/19 04:51:12;;;;;;;12.05;9.18;;;16.20;99.90;;;;;;5034509;28;20057;-79
2022/08/19 04:53:39;;;;;;;12.50;9.60;;;16.20;99.90;;;;;;5035119;28;20076;-79
2022/08/19 04:56:08;;;;;;;12.93;9.57;;;16.10;99.90;;;;;;5034226;28;20045;-78
2022/08/19 04:58:34;;;;;;;12.98;9.95;;;16.50;99.90;;;;;;5035021;28;20049;-78
2022/08/19 05:01:00;;;;;;;14.35;10.27;;;16.20;99.90;;;;;;5034265;28;20049;-79
2022/08/19 05:03:27;;;;;;;14.85;9.40;;;16.60;99.90;;;;;;5033870;28;20037;-78
2022/08/19 05:05:52;;;;;;;15.57;9.85;;;16.10;99.90;;;;;;5036442;28;20063;-79
2022/08/19 05:08:21;;;;;;;18.17;10.25;;;16.20;99.90;;;;;;5033305;28;20123;-79
2022/08/19 05:10:48;;;;;;;17.02;10.88;;;16.20;99.90;;;;;;5033425;28;20103;-78
2022/08/19 05:13:15;;;;;;;17.45;10.93;;;16.20;99.90;;;;;;5034628;28;20041;-78
2022/08/19 05:15:42;;;;;;;14.88;10.98;;;16.30;99.90;;;;;;5038086;28;20045;-78
2022/08/19 05:23:36;;;;;;;16.05;10.45;;;16.50;99.90;;;;;;5033528;28;20056;-78
2022/08/19 05:26:02;;;;;;;18.17;11.23;;;16.50;99.90;;;;;;5036664;28;20485;-79
2022/08/19 05:28:27;;;;;;;16.60;12.07;;;16.50;99.90;;;;;;5054483;28;20048;-78
2022/08/19 05:30:55;;;;;;;17.45;12.63;;;16.60;99.90;;;;;;5042264;28;20394;-79
2022/08/19 05:33:21;;;;;;;17.30;12.55;;;16.70;99.90;;;;;;5032540;28;20477;-78
2022/08/19 05:35:49;;;;;;;16.23;12.60;;;16.70;99.90;;;;;;5032917;28;20088;-79
2022/08/19 05:38:16;;;;;;;21.38;12.65;;;17.20;99.90;;;;;;5034305;28;20048;-79
2022/08/19 05:40:45;;;;;;;18.30;12.60;;;16.70;99.90;;;;;;5032575;28;20041;-78
2022/08/19 05:43:11;;;;;;;17.60;11.93;;;17.20;99.90;;;;;;5029100;28;20443;-78
2022/08/19 05:45:41;;;;;;;15.15;11.82;;;16.70;99.90;;;;;;5050331;28;20045;-78
2022/08/19 05:48:11;;;;;;;19.67;13.30;;;16.80;99.90;;;;;;5040325;28;20137;-78
2022/08/19 05:50:38;;;;;;;20.83;12.40;;;16.80;99.90;;;;;;5012939;28;20041;-79
2022/08/19 05:53:04;;;;;;;19.58;13.65;;;16.80;99.90;;;;;;5030095;28;20448;-78
2022/08/19 05:55:30;;;;;;;18.17;13.07;;;16.90;99.90;;;;;;5032138;28;20041;-78
2022/08/19 05:57:56;;;;;;;21.13;13.18;;;16.90;99.90;;;;;;5032539;28;20097;-78
2022/08/19 06:00:22;;;;;;;24.50;13.40;;;16.90;99.90;;;;;;5033171;28;20041;-78
2022/08/19 06:02:48;;;;;;;18.55;13.40;;;16.90;99.90;;;;;;5015530;28;20033;-77
2022/08/19 06:05:14;;;;;;;18.65;12.57;;;17.00;99.90;;;;;;5033437;28;20045;-78
2022/08/19 06:07:40;;;;;;;21.00;11.77;;;17.00;99.90;;;;;;5034014;28;20387;-77
2022/08/19 06:10:08;;;;;;;14.90;11.90;;;17.10;99.90;;;;;;5025601;28;20453;-77
2022/08/19 06:12:35;;;;;;;16.63;12.73;;;17.20;99.90;;;;;;5013940;28;20038;-77
2022/08/19 06:15:11;;;;;;;17.65;12.32;;;17.20;99.90;;;;;;5020729;28;20133;-79
2022/08/19 06:17:36;;;;;;;;;;;17.30;99.90;;;;;;5038215;28;20045;-79
2022/08/19 06:20:06;;;;;;;;;;;17.30;99.90;;;;;;5032544;28;19916;-79
2022/08/19 06:22:36;;;;;;;16.08;10.90;;;17.30;99.90;;;;;;5021941;28;20361;-79
2022/08/19 06:25:03;;;;;;;14.88;10.73;;;17.40;99.90;;;;;;5029289;28;20045;-79
2022/08/19 06:27:30;;;;;;;13.70;10.32;;;17.50;99.90;;;;;;5027112;28;20038;-78
2022/08/19 06:29:56;;;;;;;12.73;9.55;;;17.50;99.90;;;;;;5033922;28;20129;-78
2022/08/19 06:32:21;;;;;;;13.90;9.93;;;17.60;99.90;;;;;;5032785;28;20112;-78
2022/08/19 06:34:47;;;;;;;13.70;9.93;;;17.60;99.90;;;;;;5033612;28;20050;-78
2022/08/19 06:37:13;;;;;;;18.38;11.27;;;17.70;99.90;;;;;;5033321;28;20045;-78
2022/08/19 06:39:41;;;;;;;15.85;10.85;;;17.80;99.90;;;;;;5019634;28;20053;-77
2022/08/19 06:42:11;;;;;;;11.63;9.80;;;18.00;99.90;;;;;;5029516;28;20037;-78
2022/08/19 06:44:39;;;;;;;16.13;11.00;;;17.90;99.90;;;;;;5029023;28;20038;-78
2022/08/19 06:47:07;;;;;;;14.05;10.50;;;18.00;99.90;;;;;;5040195;28;20064;-78
2022/08/19 06:49:34;;;;;;;14.43;10.75;;;18.00;99.90;;;;;;5044405;28;20515;-78
2022/08/19 06:52:00;;;;;;;14.80;10.02;;;18.10;99.90;;;;;;5035226;28;20041;-78
2022/08/19 06:54:29;;;;;;;16.23;10.43;;;18.10;99.90;;;;;;5033491;28;20064;-78
2022/08/19 06:56:55;;;;;;;12.55;9.82;;;18.20;99.90;;;;;;5023433;28;20077;-78
2022/08/19 06:59:27;;;;;;;13.20;9.90;;;18.30;99.90;;;;;;5032960;28;20056;-78
2022/08/19 07:01:54;;;;;;;13.32;10.13;;;18.30;99.90;;;;;;5031605;28;20572;-78
2022/08/19 07:04:27;;;;;;;14.40;10.20;;;18.40;99.90;;;;;;5032965;28;20034;-77
2022/08/19 07:07:07;;;;;;;13.35;9.10;;;18.50;99.90;;;;;;5033206;28;20045;-78
2022/08/19 07:09:36;;;;;;;14.90;10.23;;;18.60;99.90;;;;;;5032797;28;20045;-78
2022/08/19 07:12:03;;;;;;;14.90;9.73;;;18.70;99.90;;;;;;5033273;28;20040;-77
2022/08/19 07:14:29;;;;;;;14.00;10.02;;;18.80;99.90;;;;;;5035332;28;20120;-77
2022/08/19 07:16:56;;;;;;;13.20;9.82;;;18.90;99.90;;;;;;5031185;28;20469;-77
2022/08/19 07:19:24;;;;;;;13.35;9.57;;;19.00;99.90;;;;;;5032656;28;20393;-78
2022/08/19 07:21:53;;;;;;;16.85;9.77;;;19.10;99.90;;;;;;5031547;28;20509;-77
2022/08/19 07:24:24;;;;;;;12.57;9.73;;;19.20;99.90;;;;;;5031507;28;20041;-78
2022/08/19 07:26:52;;;;;;;15.05;8.80;;;19.30;99.90;;;;;;5028850;28;20392;-78
2022/08/19 07:29:18;;;;;;;10.95;9.13;;;19.30;99.90;;;;;;5031275;28;20440;-78
2022/08/19 07:31:44;;;;;;;12.55;9.00;;;19.40;99.90;;;;;;5028796;28;20050;-77
2022/08/19 07:34:13;;;;;;;12.38;9.05;;;19.50;99.90;;;;;;5032133;28;20509;-76
2022/08/19 07:36:41;;;;;;;15.25;9.63;;;19.60;99.90;;;;;;5031666;28;20037;-79
2022/08/19 07:39:25;;;;;;;13.25;9.40;;;19.70;99.90;;;;;;5033133;28;20405;-80
2022/08/19 07:41:51;;;;;;;11.77;9.07;;;19.70;99.90;;;;;;5016087;28;20045;-84
2022/08/19 07:44:20;;;;;;;14.73;9.82;;;19.80;99.90;;;;;;5032513;28;20049;-86
2022/08/19 07:46:48;;;;;;;15.93;9.10;;;19.90;99.90;;;;;;5033454;28;20073;-86
2022/08/19 07:49:18;;;;;;;10.90;9.13;;;20.10;99.90;;;;;;5014549;28;20050;-86
2022/08/19 07:51:47;;;;;;;13.48;9.52;;;20.20;99.90;;;;;;5014161;28;20046;-86
2022/08/19 07:54:13;;;;;;;12.00;9.30;;;20.30;99.90;;;;;;5016944;28;20037;-87
2022/08/19 07:56:39;;;;;;;11.20;9.13;;;20.40;99.90;;;;;;5033292;28;20389;-86
2022/08/19 07:59:05;;;;;;;12.57;8.95;;;20.50;99.90;;;;;;5033850;28;20101;-87
2022/08/19 08:01:31;;;;;;;16.88;9.05;;;20.60;99.90;;;;;;5033302;28;20063;-86
2022/08/19 08:09:30;;;;;;;12.07;8.95;;;20.90;99.90;;;;;;5033452;28;20417;-86
2022/08/19 08:12:03;;;;;;;12.43;8.80;;;21.00;99.90;;;;;;5035053;28;20041;-86
2022/08/19 08:14:47;;;;;;;12.65;9.93;;;21.10;99.90;;;;;;5024950;28;20038;-86
2022/08/19 08:17:13;;;;;;;12.05;8.40;;;21.20;99.90;;;;;;5036477;28;20409;-87
2022/08/19 08:19:40;;;;;;;11.38;8.88;;;21.30;99.90;;;;;;5026581;28;20042;-87
2022/08/19 08:22:08;;;;;;;11.27;8.05;;;21.40;99.90;;;;;;5030886;28;20397;-86
2022/08/19 08:24:35;;;;;;;11.73;9.38;;;21.50;99.90;;;;;;5036683;28;20045;-86
2022/08/19 08:27:01;;;;;;;11.48;8.50;;;21.60;99.90;;;;;;5036028;28;20045;-86
2022/08/19 08:29:29;;;;;;;12.27;7.47;;;21.70;99.90;;;;;;5036711;28;20033;-86
2022/08/19 08:31:55;;;;;;;8.50;7.28;;;21.80;99.90;;;;;;5036142;28;20099;-86
2022/08/19 08:34:21;;;;;;;8.98;6.50;;;21.90;99.90;;;;;;5034912;28;20378;-86
2022/08/19 08:36:47;;;;;;;9.55;7.07;;;22.00;99.90;;;;;;5034810;28;20075;-86
2022/08/19 08:39:18;;;;;;;10.32;8.77;;;22.10;99.90;;;;;;5036838;28;20041;-86
2022/08/19 08:42:13;;;;;;;9.80;7.78;;;22.30;99.90;;;;;;5034994;28;20041;-86
2022/08/19 08:44:39;;;;;;;13.30;9.55;;;22.50;99.90;;;;;;5037798;28;20063;-87
2022/08/19 08:47:12;;;;;;;11.02;9.10;;;22.60;99.90;;;;;;5034402;28;20412;-87
2022/08/19 08:49:40;;;;;;;11.02;8.93;;;22.70;99.90;;;;;;5032454;28;20052;-88
2022/08/19 08:52:13;;;;;;;12.00;9.95;;;22.80;99.90;;;;;;5031617;28;20033;-88
2022/08/19 08:54:46;;;;;;;12.82;9.77;;;23.00;99.90;;;;;;5034135;28;20375;-87
2022/08/19 08:57:34;;;;;;;11.65;9.30;;;23.20;99.90;;;;;;5026026;28;20053;-87
2022/08/19 09:00:06;;;;;;;12.95;11.07;;;23.30;99.90;;;;;;5016100;28;20042;-87
2022/08/19 09:02:32;;;;;;;13.77;10.15;;;23.40;99.90;;;;;;5015862;28;20034;-87
2022/08/19 09:04:57;;;;;;;12.27;10.07;;;23.50;99.90;;;;;;5035293;28;20050;-88
2022/08/19 09:07:41;;;;;;;11.85;7.72;;;23.70;99.90;;;;;;5035415;28;20068;-85
2022/08/19 09:10:21;;;;;;;11.82;9.48;;;23.80;99.90;;;;;;5030829;28;20033;-87
2022/08/19 09:12:52;;;;;;;13.20;9.20;;;24.10;99.90;;;;;;5048103;28;20049;-86
2022/08/19 09:15:27;;;;;;;13.63;9.63;;;24.30;99.90;;;;;;5034240;28;20041;-86
2022/08/19 09:17:53;;;;;;;;;;;24.50;99.90;;;;;;5033725;28;20111;-86
2022/08/19 09:20:22;;;;;;;11.68;8.65;;;24.80;99.90;;;;;;5034975;28;20336;-86
2022/08/19 09:22:49;;;;;;;12.65;9.40;;;25.00;99.90;;;;;;5034004;28;20048;-86
2022/08/19 09:25:22;;;;;;;12.52;9.55;;;25.20;99.90;;;;;;5034519;28;20053;-86
2022/08/19 09:27:49;;;;;;;11.38;8.60;;;25.50;99.90;;;;;;5047477;28;20046;-87
2022/08/19 09:30:19;;;;;;;10.32;8.93;;;25.90;99.90;;;;;;5014686;28;20375;-86
2022/08/19 09:32:45;;;;;;;10.65;8.70;;;26.20;99.90;;;;;;5036877;28;20056;-86
2022/08/19 09:35:12;;;;;;;9.25;7.68;;;26.50;99.90;;;;;;5027414;28;20396;-86
2022/08/19 09:37:38;;;;;;;13.02;8.98;;;26.80;99.90;;;;;;5028592;28;20054;-86
2022/08/19 09:40:04;;;;;;;14.48;9.30;;;27.00;99.90;;;;;;5035448;28;20038;-87
2022/08/19 09:42:30;;;;;;;9.52;8.52;;;27.30;99.90;;;;;;5035384;28;20043;-85
2022/08/19 09:44:56;;;;;;;9.07;7.55;;;27.50;99.90;;;;;;5034306;28;20401;-81
2022/08/19 09:47:21;;;;;;;10.40;7.78;;;28.00;99.90;;;;;;5031540;28;20139;-81
2022/08/19 09:49:48;;;;;;;9.63;7.93;;;28.20;99.90;;;;;;5016257;28;20054;-81
2022/08/19 09:52:15;;;;;;;7.85;6.93;;;28.40;99.90;;;;;;5034147;28;20387;-81
2022/08/19 09:54:41;;;;;;;9.15;6.78;;;28.50;99.90;;;;;;5034470;28;20453;-81
2022/08/19 09:57:07;;;;;;;10.18;6.90;;;28.70;99.90;;;;;;5034110;28;20041;-82
2022/08/19 09:59:33;;;;;;;8.80;6.68;;;28.70;99.90;;;;;;5034614;28;20037;-81
2022/08/19 10:01:59;;;;;;;11.65;8.23;;;28.80;99.90;;;;;;5034545;28;20076;-82
2022/08/19 10:05:47;;;;;;;9.20;7.68;;;29.10;99.90;;;;;;5033787;28;20085;-81
2022/08/19 10:07:10;;;;;;;8.05;7.25;;;29.30;99.90;;;;;;5033902;28;20046;-81
2022/08/19 10:09:36;;;;;;;10.02;7.82;;;29.50;99.90;;;;;;5034065;28;20041;-81
2022/08/19 10:12:04;;;;;;;9.85;8.25;;;29.70;99.90;;;;;;5034134;28;20127;-82
2022/08/19 10:14:30;;;;;;;10.70;8.55;;;29.80;99.90;;;;;;5031258;28;20504;-82
2022/08/19 10:16:56;;;;;;;10.43;8.98;;;29.90;99.90;;;;;;5031948;28;20112;-82
2022/08/19 10:19:22;;;;;;;9.57;7.40;;;30.10;99.90;;;;;;5034361;28;20046;-82
2022/08/19 10:21:48;;;;;;;8.90;7.07;;;30.20;99.90;;;;;;5033506;28;20037;-82
2022/08/19 10:24:13;;;;;;;7.50;6.70;;;30.40;99.90;;;;;;5033147;28;20068;-82
2022/08/19 10:26:47;;;;;;;9.38;7.10;;;30.60;99.90;;;;;;5030074;28;20099;-81
2022/08/19 10:29:15;;;;;;;9.82;7.90;;;31.30;98.20;;;;;;5032419;28;20049;-81
2022/08/19 10:31:41;;;;;;;9.70;8.60;;;31.70;97.20;;;;;;5030609;28;20041;-82
2022/08/19 10:34:07;;;;;;;8.40;7.50;;;31.70;97.00;;;;;;5031203;28;20041;-81
2022/08/19 10:36:35;;;;;;;9.75;7.80;;;31.80;96.60;;;;;;5033423;28;20111;-74
2022/08/19 10:39:07;;;;;;;7.78;6.78;;;32.00;95.90;;;;;;5022404;28;20048;-72
2022/08/19 10:41:36;;;;;;;8.73;6.47;;;32.10;96.00;;;;;;5009870;28;20077;-73
2022/08/19 10:44:11;;;;;;;9.20;7.97;;;32.00;96.10;;;;;;5026274;28;20041;-72
2022/08/19 10:46:41;;;;;;;11.90;8.05;;;31.70;96.50;;;;;;5031914;28;20049;-72
2022/08/19 10:49:08;;;;;;;9.27;7.97;;;31.30;96.70;;;;;;5030166;28;20478;-73
2022/08/19 10:54:18;;;;;;;8.82;7.93;;;31.20;97.10;;;;;;5029721;28;20057;-72
2022/08/19 10:56:53;;;;;;;7.90;6.57;;;31.40;96.70;;;;;;5029434;28;20095;-73
2022/08/19 10:59:27;;;;;;;9.60;7.53;;;31.60;96.30;;;;;;5029827;28;20095;-72
2022/08/19 11:01:53;;;;;;;9.32;7.15;;;31.80;96.00;;;;;;5029604;28;20046;-73
2022/08/19 11:04:20;;;;;;;8.73;7.10;;;31.90;96.00;;;;;;5029496;28;20398;-83
2022/08/19 11:06:47;;;;;;;9.95;8.15;;;32.00;96.00;;;;;;5031123;28;20132;-83
2022/08/19 11:09:16;;;;;;;9.57;6.97;;;32.10;95.70;;;;;;5032730;28;20390;-84
2022/08/19 11:11:42;;;;;;;8.35;6.32;;;32.30;95.90;;;;;;5031262;28;20077;-84
2022/08/19 11:14:15;;;;;;;8.90;7.53;;;32.50;95.90;;;;;;5032745;28;20045;-84
2022/08/19 11:16:42;;;;;;;10.90;7.57;;;33.00;94.50;;;;;;5033230;28;20053;-84
2022/08/19 11:19:10;;;;;;;9.35;8.43;;;33.20;94.70;;;;;;5033788;28;20045;-83
2022/08/19 11:21:39;;;;;;;9.38;8.48;;;33.70;93.80;;;;;;5031785;28;20045;-83
2022/08/19 11:24:23;;;;;;;9.40;7.45;;;34.20;93.20;;;;;;5033013;28;20132;-84
2022/08/19 11:26:50;;;;;;;7.70;6.35;;;34.90;93.00;;;;;;5029585;28;20125;-83
2022/08/19 11:29:18;;;;;;;8.98;6.90;;;35.90;91.50;;;;;;5014595;28;20042;-84
2022/08/19 11:31:47;;;;;;;7.25;6.00;;;36.80;90.60;;;;;;5012335;28;20042;-82
2022/08/19 11:34:17;;;;;;;7.38;6.15;;;37.30;90.00;;;;;;5013353;28;20542;-83
2022/08/19 11:36:45;;;;;;;9.38;7.82;;;37.20;88.30;;;;;;5013557;28;20053;-83
2022/08/19 11:39:13;;;;;;;8.60;7.07;;;37.90;86.50;;;;;;5023008;28;20042;-83
2022/08/19 11:41:39;;;;;;;8.32;7.47;;;37.90;86.50;;;;;;5012857;28;20046;-83
2022/08/19 11:44:07;;;;;;;7.95;6.30;;;38.00;84.90;;;;;;5018784;28;20060;-83
2022/08/19 11:46:34;;;;;;;8.18;6.20;;;37.70;83.40;;;;;;5050489;28;20045;-83
2022/08/19 11:49:01;;;;;;;8.15;6.90;;;36.90;83.10;;;;;;5056855;28;20354;-83
2022/08/19 11:51:27;;;;;;;8.38;6.80;;;35.50;85.10;;;;;;5050485;28;20061;-82
2022/08/19 11:53:55;;;;;;;9.15;7.47;;;34.30;87.50;;;;;;5036277;28;20045;-82
2022/08/19 11:56:22;;;;;;;8.40;7.50;;;33.60;88.20;;;;;;5017249;28;20057;-83
2022/08/19 11:58:48;;;;;;;7.28;6.57;;;32.70;89.50;;;;;;5041153;28;20060;-88
2022/08/19 12:01:17;;;;;;;11.25;7.50;;;32.00;90.60;;;;;;5038699;28;20041;-88
2022/08/19 12:03:46;;;;;;;9.52;8.20;;;31.40;91.30;;;;;;5038292;28;20042;-87
2022/08/19 12:06:17;;;;;;;10.13;7.38;;;31.00;91.70;;;;;;5038949;28;20065;-88
2022/08/19 12:08:44;;;;;;;9.43;8.32;;;30.80;92.30;;;;;;5038831;28;20448;-88
2022/08/19 12:11:11;;;;;;;10.65;7.65;;;30.60;93.00;;;;;;5045148;28;20091;-88
2022/08/19 12:13:38;;;;;;;9.93;8.10;;;30.50;93.20;;;;;;5037863;28;20060;-87
2022/08/19 12:16:13;;;;;;;8.90;8.00;;;30.40;92.90;;;;;;5019182;28;20053;-88
2022/08/19 12:18:46;;;;;;;9.75;6.75;;;30.40;92.70;;;;;;5018656;28;20057;-87
2022/08/19 12:21:13;;;;;;;9.20;7.30;;;30.10;92.90;;;;;;5019873;28;20037;-87
2022/08/19 12:23:41;;;;;;;9.20;7.63;;;30.00;93.20;;;;;;5021114;28;20126;-86
2022/08/19 12:26:09;;;;;;;8.50;6.70;;;29.80;93.30;;;;;;5038207;28;20132;-87
2022/08/19 12:28:35;;;;;;;11.23;8.30;;;29.70;93.60;;;;;;5037731;28;20037;-88
2022/08/19 12:31:01;;;;;;;8.13;6.90;;;29.60;93.90;;;;;;5039216;28;20041;-87
2022/08/19 12:33:28;;;;;;;12.10;8.27;;;29.50;94.20;;;;;;5037125;28;20048;-87
2022/08/19 12:35:54;;;;;;;10.38;7.75;;;29.40;94.30;;;;;;5032149;28;20379;-87
2022/08/19 12:38:24;;;;;;;10.00;7.82;;;29.20;94.60;;;;;;5035525;28;20041;-88
2022/08/19 12:40:51;;;;;;;9.85;7.50;;;29.10;94.90;;;;;;5036006;28;20048;-87
2022/08/19 12:43:17;;;;;;;10.48;7.63;;;29.00;95.20;;;;;;5036206;28;20060;-88
2022/08/19 12:45:44;;;;;;;9.55;8.02;;;29.00;95.50;;;;;;5046702;28;20045;-83
2022/08/19 12:48:11;;;;;;;11.95;7.68;;;29.10;95.60;;;;;;5037113;28;20052;-84
2022/08/19 12:50:39;;;;;;;10.25;7.50;;;29.10;95.70;;;;;;5034982;28;20180;-83
2022/08/19 12:53:05;;;;;;;9.70;6.90;;;29.20;95.50;;;;;;5035572;28;20041;-83
2022/08/19 12:55:31;;;;;;;8.40;6.65;;;29.20;95.10;;;;;;5034465;28;20504;-84
2022/08/19 12:57:57;;;;;;;9.23;6.80;;;29.10;94.90;;;;;;5035088;28;20048;-84
2022/08/19 13:00:23;;;;;;;9.05;6.55;;;29.00;94.80;;;;;;5034750;28;20029;-83
2022/08/19 13:02:51;;;;;;;11.05;7.28;;;28.80;95.20;;;;;;5032068;28;20478;-84